sensor_id;sensor_type;location;lat;lon;timestamp;temperature;humidity
34406;DHT22;20658;45.630;8.886;2022-07-29T00:00:34;21.10;76.60
34406;DHT22;20658;45.630;8.886;2022-07-29T00:03:08;21.10;76.20
34406;DHT22;20658;45.630;8.886;2022-07-29T00:05:42;21.10;76.00
34406;DHT22;20658;45.630;8.886;2022-07-29T00:08:15;21.20;75.90
34406;DHT22;20658;45.630;8.886;2022-07-29T00:10:48;21.20;75.50
34406;DHT22;20658;45.630;8.886;2022-07-29T00:13:22;21.20;75.70
34406;DHT22;20658;45.630;8.886;2022-07-29T00:15:57;21.10;75.70
34406;DHT22;20658;45.630;8.886;2022-07-29T00:18:30;21.20;75.80
34406;DHT22;20658;45.630;8.886;2022-07-29T00:21:04;21.10;75.40
34406;DHT22;20658;45.630;8.886;2022-07-29T00:23:37;21.10;75.70
34406;DHT22;20658;45.630;8.886;2022-07-29T00:26:11;21.10;75.80
34406;DHT22;20658;45.630;8.886;2022-07-29T00:28:45;21.20;76.00
34406;DHT22;20658;45.630;8.886;2022-07-29T00:31:19;21.20;75.70
34406;DHT22;20658;45.630;8.886;2022-07-29T00:33:53;21.30;75.20
34406;DHT22;20658;45.630;8.886;2022-07-29T00:36:27;21.20;75.00
34406;DHT22;20658;45.630;8.886;2022-07-29T00:38:59;21.10;75.30
34406;DHT22;20658;45.630;8.886;2022-07-29T00:41:33;21.20;75.40
34406;DHT22;20658;45.630;8.886;2022-07-29T00:44:06;21.20;75.10
34406;DHT22;20658;45.630;8.886;2022-07-29T00:46:41;21.20;75.10
34406;DHT22;20658;45.630;8.886;2022-07-29T00:49:14;21.20;75.10
34406;DHT22;20658;45.630;8.886;2022-07-29T00:51:48;21.20;75.30
34406;DHT22;20658;45.630;8.886;2022-07-29T00:54:22;21.10;75.60
34406;DHT22;20658;45.630;8.886;2022-07-29T00:56:58;21.10;75.40
34406;DHT22;20658;45.630;8.886;2022-07-29T00:59:32;21.10;75.50
34406;DHT22;20658;45.630;8.886;2022-07-29T01:02:07;21.10;75.60
34406;DHT22;20658;45.630;8.886;2022-07-29T01:04:40;21.10;75.60
34406;DHT22;20658;45.630;8.886;2022-07-29T01:07:14;21.10;75.50
34406;DHT22;20658;45.630;8.886;2022-07-29T01:09:48;21.10;75.20
34406;DHT22;20658;45.630;8.886;2022-07-29T01:12:24;21.10;75.40
34406;DHT22;20658;45.630;8.886;2022-07-29T01:14:59;21.00;75.50
34406;DHT22;20658;45.630;8.886;2022-07-29T01:17:38;21.00;75.40
34406;DHT22;20658;45.630;8.886;2022-07-29T01:20:18;21.00;75.80
34406;DHT22;20658;45.630;8.886;2022-07-29T01:23:17;20.90;75.90
34406;DHT22;20658;45.630;8.886;2022-07-29T01:26:28;20.90;76.20
34406;DHT22;20658;45.630;8.886;2022-07-29T01:29:12;20.90;76.40
34406;DHT22;20658;45.630;8.886;2022-07-29T01:31:55;20.90;76.80
34406;DHT22;20658;45.630;8.886;2022-07-29T01:34:35;20.80;76.80
34406;DHT22;20658;45.630;8.886;2022-07-29T01:37:19;20.80;76.70
34406;DHT22;20658;45.630;8.886;2022-07-29T01:39:57;20.80;76.80
34406;DHT22;20658;45.630;8.886;2022-07-29T01:42:35;20.80;77.00
34406;DHT22;20658;45.630;8.886;2022-07-29T01:45:15;20.80;77.00
34406;DHT22;20658;45.630;8.886;2022-07-29T01:47:56;20.80;76.80
34406;DHT22;20658;45.630;8.886;2022-07-29T01:50:35;20.70;76.80
34406;DHT22;20658;45.630;8.886;2022-07-29T01:53:12;20.70;77.10
34406;DHT22;20658;45.630;8.886;2022-07-29T01:55:49;20.60;76.90
34406;DHT22;20658;45.630;8.886;2022-07-29T01:58:24;20.60;77.00
34406;DHT22;20658;45.630;8.886;2022-07-29T02:01:00;20.70;76.90
34406;DHT22;20658;45.630;8.886;2022-07-29T02:03:35;20.60;76.90
34406;DHT22;20658;45.630;8.886;2022-07-29T02:06:10;20.60;76.90
34406;DHT22;20658;45.630;8.886;2022-07-29T02:08:46;20.60;77.00
34406;DHT22;20658;45.630;8.886;2022-07-29T02:11:20;20.60;76.90
34406;DHT22;20658;45.630;8.886;2022-07-29T02:13:55;20.70;76.60
34406;DHT22;20658;45.630;8.886;2022-07-29T02:16:32;20.60;76.60
34406;DHT22;20658;45.630;8.886;2022-07-29T02:19:07;20.60;76.70
34406;DHT22;20658;45.630;8.886;2022-07-29T02:21:42;20.60;76.90
34406;DHT22;20658;45.630;8.886;2022-07-29T02:24:17;20.60;76.70
34406;DHT22;20658;45.630;8.886;2022-07-29T02:26:53;20.60;76.80
34406;DHT22;20658;45.630;8.886;2022-07-29T02:29:29;20.60;77.00
34406;DHT22;20658;45.630;8.886;2022-07-29T02:32:06;20.60;76.70
34406;DHT22;20658;45.630;8.886;2022-07-29T02:34:41;20.60;76.70
34406;DHT22;20658;45.630;8.886;2022-07-29T02:37:16;20.60;76.60
34406;DHT22;20658;45.630;8.886;2022-07-29T02:39:53;20.60;76.50
34406;DHT22;20658;45.630;8.886;2022-07-29T02:42:27;20.60;76.70
34406;DHT22;20658;45.630;8.886;2022-07-29T02:45:01;20.70;76.40
34406;DHT22;20658;45.630;8.886;2022-07-29T02:47:41;20.70;76.50
34406;DHT22;20658;45.630;8.886;2022-07-29T02:50:21;20.70;76.80
34406;DHT22;20658;45.630;8.886;2022-07-29T02:53:02;20.80;76.60
34406;DHT22;20658;45.630;8.886;2022-07-29T02:55:43;20.80;76.50
34406;DHT22;20658;45.630;8.886;2022-07-29T02:58:24;20.80;76.40
34406;DHT22;20658;45.630;8.886;2022-07-29T03:01:04;20.80;76.00
34406;DHT22;20658;45.630;8.886;2022-07-29T03:03:44;20.80;76.10
34406;DHT22;20658;45.630;8.886;2022-07-29T03:06:21;20.80;76.00
34406;DHT22;20658;45.630;8.886;2022-07-29T03:08:56;20.90;76.10
34406;DHT22;20658;45.630;8.886;2022-07-29T03:11:31;20.90;75.80
34406;DHT22;20658;45.630;8.886;2022-07-29T03:14:05;20.90;75.50
34406;DHT22;20658;45.630;8.886;2022-07-29T03:16:39;21.00;74.90
34406;DHT22;20658;45.630;8.886;2022-07-29T03:19:14;20.90;75.20
34406;DHT22;20658;45.630;8.886;2022-07-29T03:21:48;20.90;75.20
34406;DHT22;20658;45.630;8.886;2022-07-29T03:24:26;20.90;75.10
34406;DHT22;20658;45.630;8.886;2022-07-29T03:27:04;20.90;75.30
34406;DHT22;20658;45.630;8.886;2022-07-29T03:29:38;20.90;75.30
34406;DHT22;20658;45.630;8.886;2022-07-29T03:32:11;20.90;74.90
34406;DHT22;20658;45.630;8.886;2022-07-29T03:34:46;20.80;74.40
34406;DHT22;20658;45.630;8.886;2022-07-29T03:37:19;20.80;74.70
34406;DHT22;20658;45.630;8.886;2022-07-29T03:39:55;20.80;74.60
34406;DHT22;20658;45.630;8.886;2022-07-29T03:42:31;20.80;74.70
34406;DHT22;20658;45.630;8.886;2022-07-29T03:45:09;20.80;74.90
34406;DHT22;20658;45.630;8.886;2022-07-29T03:47:48;20.80;74.90
34406;DHT22;20658;45.630;8.886;2022-07-29T03:50:24;20.80;75.10
34406;DHT22;20658;45.630;8.886;2022-07-29T03:52:59;20.80;75.10
34406;DHT22;20658;45.630;8.886;2022-07-29T03:55:41;20.80;75.00
34406;DHT22;20658;45.630;8.886;2022-07-29T03:58:18;20.70;75.20
34406;DHT22;20658;45.630;8.886;2022-07-29T04:00:52;20.80;75.10
34406;DHT22;20658;45.630;8.886;2022-07-29T04:03:27;20.80;75.20
34406;DHT22;20658;45.630;8.886;2022-07-29T04:06:04;20.80;75.40
34406;DHT22;20658;45.630;8.886;2022-07-29T04:08:38;20.70;75.40
34406;DHT22;20658;45.630;8.886;2022-07-29T04:11:12;20.80;75.70
34406;DHT22;20658;45.630;8.886;2022-07-29T04:13:46;20.80;75.90
34406;DHT22;20658;45.630;8.886;2022-07-29T04:16:19;20.90;75.60
34406;DHT22;20658;45.630;8.886;2022-07-29T04:18:53;20.90;75.30
34406;DHT22;20658;45.630;8.886;2022-07-29T04:21:27;20.80;75.50
34406;DHT22;20658;45.630;8.886;2022-07-29T04:24:01;20.80;76.00
34406;DHT22;20658;45.630;8.886;2022-07-29T04:26:35;20.80;75.90
34406;DHT22;20658;45.630;8.886;2022-07-29T04:29:08;20.80;75.90
34406;DHT22;20658;45.630;8.886;2022-07-29T04:31:43;20.80;75.90
34406;DHT22;20658;45.630;8.886;2022-07-29T04:34:17;20.80;76.00
34406;DHT22;20658;45.630;8.886;2022-07-29T04:36:52;20.80;75.80
34406;DHT22;20658;45.630;8.886;2022-07-29T04:39:26;20.80;76.10
34406;DHT22;20658;45.630;8.886;2022-07-29T04:41:59;20.80;76.00
34406;DHT22;20658;45.630;8.886;2022-07-29T04:44:33;20.80;76.00
34406;DHT22;20658;45.630;8.886;2022-07-29T04:47:08;20.80;75.80
34406;DHT22;20658;45.630;8.886;2022-07-29T04:49:41;20.90;75.50
34406;DHT22;20658;45.630;8.886;2022-07-29T04:52:16;20.90;75.10
34406;DHT22;20658;45.630;8.886;2022-07-29T04:54:50;21.00;75.30
34406;DHT22;20658;45.630;8.886;2022-07-29T04:57:23;20.90;75.20
34406;DHT22;20658;45.630;8.886;2022-07-29T04:59:57;20.90;75.30
34406;DHT22;20658;45.630;8.886;2022-07-29T05:02:30;20.90;75.10
34406;DHT22;20658;45.630;8.886;2022-07-29T05:05:05;21.00;75.10
34406;DHT22;20658;45.630;8.886;2022-07-29T05:07:40;21.00;75.00
34406;DHT22;20658;45.630;8.886;2022-07-29T05:10:14;21.10;75.30
34406;DHT22;20658;45.630;8.886;2022-07-29T05:12:47;21.00;75.00
34406;DHT22;20658;45.630;8.886;2022-07-29T05:15:20;21.00;75.30
34406;DHT22;20658;45.630;8.886;2022-07-29T05:17:54;21.10;75.30
34406;DHT22;20658;45.630;8.886;2022-07-29T05:20:27;21.10;75.30
34406;DHT22;20658;45.630;8.886;2022-07-29T05:23:03;21.10;75.40
34406;DHT22;20658;45.630;8.886;2022-07-29T05:25:36;21.20;75.30
34406;DHT22;20658;45.630;8.886;2022-07-29T05:28:10;21.30;75.10
34406;DHT22;20658;45.630;8.886;2022-07-29T05:30:44;21.50;74.40
34406;DHT22;20658;45.630;8.886;2022-07-29T05:33:18;21.70;73.30
34406;DHT22;20658;45.630;8.886;2022-07-29T05:35:51;22.00;72.30
34406;DHT22;20658;45.630;8.886;2022-07-29T05:38:26;22.10;71.50
34406;DHT22;20658;45.630;8.886;2022-07-29T05:41:00;22.00;71.30
34406;DHT22;20658;45.630;8.886;2022-07-29T05:43:33;22.00;71.40
34406;DHT22;20658;45.630;8.886;2022-07-29T05:46:07;22.20;71.50
34406;DHT22;20658;45.630;8.886;2022-07-29T05:48:40;22.40;70.50
34406;DHT22;20658;45.630;8.886;2022-07-29T05:51:13;22.40;70.20
34406;DHT22;20658;45.630;8.886;2022-07-29T05:53:48;22.20;70.30
34406;DHT22;20658;45.630;8.886;2022-07-29T05:56:22;22.30;70.40
34406;DHT22;20658;45.630;8.886;2022-07-29T05:58:55;22.40;70.10
34406;DHT22;20658;45.630;8.886;2022-07-29T06:01:29;22.80;69.00
34406;DHT22;20658;45.630;8.886;2022-07-29T06:04:03;23.20;67.10
34406;DHT22;20658;45.630;8.886;2022-07-29T06:06:36;23.60;65.60
34406;DHT22;20658;45.630;8.886;2022-07-29T06:09:11;23.90;64.30
34406;DHT22;20658;45.630;8.886;2022-07-29T06:11:45;24.00;63.60
34406;DHT22;20658;45.630;8.886;2022-07-29T06:14:19;23.70;64.40
34406;DHT22;20658;45.630;8.886;2022-07-29T06:16:52;23.70;64.50
34406;DHT22;20658;45.630;8.886;2022-07-29T06:19:25;24.20;62.60
34406;DHT22;20658;45.630;8.886;2022-07-29T06:21:59;24.30;62.20
34406;DHT22;20658;45.630;8.886;2022-07-29T06:24:33;24.50;61.90
34406;DHT22;20658;45.630;8.886;2022-07-29T06:27:09;24.80;60.30
34406;DHT22;20658;45.630;8.886;2022-07-29T06:29:43;24.80;59.80
34406;DHT22;20658;45.630;8.886;2022-07-29T06:32:17;24.80;60.30
34406;DHT22;20658;45.630;8.886;2022-07-29T06:34:51;24.90;60.40
34406;DHT22;20658;45.630;8.886;2022-07-29T06:37:24;25.30;59.30
34406;DHT22;20658;45.630;8.886;2022-07-29T06:39:59;25.60;58.50
34406;DHT22;20658;45.630;8.886;2022-07-29T06:42:46;25.60;57.50
34406;DHT22;20658;45.630;8.886;2022-07-29T06:45:20;26.00;57.70
34406;DHT22;20658;45.630;8.886;2022-07-29T06:47:53;26.40;56.10
34406;DHT22;20658;45.630;8.886;2022-07-29T06:50:27;26.70;55.30
34406;DHT22;20658;45.630;8.886;2022-07-29T06:53:00;26.40;55.80
34406;DHT22;20658;45.630;8.886;2022-07-29T06:55:35;26.70;55.30
34406;DHT22;20658;45.630;8.886;2022-07-29T06:58:08;27.00;55.20
34406;DHT22;20658;45.630;8.886;2022-07-29T07:00:49;27.20;54.70
34406;DHT22;20658;45.630;8.886;2022-07-29T07:03:23;27.50;54.20
34406;DHT22;20658;45.630;8.886;2022-07-29T07:05:56;27.60;52.40
34406;DHT22;20658;45.630;8.886;2022-07-29T07:08:30;27.60;52.30
34406;DHT22;20658;45.630;8.886;2022-07-29T07:11:05;27.70;52.20
34406;DHT22;20658;45.630;8.886;2022-07-29T07:13:39;27.60;51.80
34406;DHT22;20658;45.630;8.886;2022-07-29T07:16:12;27.70;51.10
34406;DHT22;20658;45.630;8.886;2022-07-29T07:18:45;27.60;51.70
34406;DHT22;20658;45.630;8.886;2022-07-29T07:21:19;27.50;51.40
34406;DHT22;20658;45.630;8.886;2022-07-29T07:23:52;27.60;51.50
34406;DHT22;20658;45.630;8.886;2022-07-29T07:26:28;27.80;51.10
34406;DHT22;20658;45.630;8.886;2022-07-29T07:29:01;27.90;51.30
34406;DHT22;20658;45.630;8.886;2022-07-29T07:31:36;28.00;51.40
34406;DHT22;20658;45.630;8.886;2022-07-29T07:34:10;28.00;50.10
34406;DHT22;20658;45.630;8.886;2022-07-29T07:36:43;28.00;50.50
34406;DHT22;20658;45.630;8.886;2022-07-29T07:39:17;27.90;50.30
34406;DHT22;20658;45.630;8.886;2022-07-29T07:41:52;27.90;49.80
34406;DHT22;20658;45.630;8.886;2022-07-29T07:44:26;28.00;49.90
34406;DHT22;20658;45.630;8.886;2022-07-29T07:47:00;28.00;49.70
34406;DHT22;20658;45.630;8.886;2022-07-29T07:49:34;28.20;49.10
34406;DHT22;20658;45.630;8.886;2022-07-29T07:52:07;28.40;48.50
34406;DHT22;20658;45.630;8.886;2022-07-29T07:54:41;28.70;48.00
34406;DHT22;20658;45.630;8.886;2022-07-29T07:57:16;28.70;47.20
34406;DHT22;20658;45.630;8.886;2022-07-29T07:59:50;28.60;47.30
34406;DHT22;20658;45.630;8.886;2022-07-29T08:02:23;28.50;47.40
34406;DHT22;20658;45.630;8.886;2022-07-29T08:04:57;28.30;47.70
34406;DHT22;20658;45.630;8.886;2022-07-29T08:07:31;28.20;48.00
34406;DHT22;20658;45.630;8.886;2022-07-29T08:10:05;28.30;47.90
34406;DHT22;20658;45.630;8.886;2022-07-29T08:12:40;28.30;46.80
34406;DHT22;20658;45.630;8.886;2022-07-29T08:15:14;28.40;46.20
34406;DHT22;20658;45.630;8.886;2022-07-29T08:17:47;28.00;46.90
34406;DHT22;20658;45.630;8.886;2022-07-29T08:20:20;28.40;47.40
34406;DHT22;20658;45.630;8.886;2022-07-29T08:22:54;28.60;46.60
34406;DHT22;20658;45.630;8.886;2022-07-29T08:25:27;29.10;46.20
34406;DHT22;20658;45.630;8.886;2022-07-29T08:28:02;29.30;43.90
34406;DHT22;20658;45.630;8.886;2022-07-29T08:30:36;29.20;43.40
34406;DHT22;20658;45.630;8.886;2022-07-29T08:33:10;29.40;43.40
34406;DHT22;20658;45.630;8.886;2022-07-29T08:35:43;29.30;43.20
34406;DHT22;20658;45.630;8.886;2022-07-29T08:38:17;29.70;42.30
34406;DHT22;20658;45.630;8.886;2022-07-29T08:40:50;30.00;42.40
34406;DHT22;20658;45.630;8.886;2022-07-29T08:43:25;30.10;42.20
34406;DHT22;20658;45.630;8.886;2022-07-29T08:46:00;30.20;42.60
34406;DHT22;20658;45.630;8.886;2022-07-29T08:48:34;29.90;41.80
34406;DHT22;20658;45.630;8.886;2022-07-29T08:51:07;29.80;42.20
34406;DHT22;20658;45.630;8.886;2022-07-29T08:53:42;29.80;41.80
34406;DHT22;20658;45.630;8.886;2022-07-29T08:56:18;29.80;41.90
34406;DHT22;20658;45.630;8.886;2022-07-29T08:58:54;30.00;42.70
34406;DHT22;20658;45.630;8.886;2022-07-29T09:01:29;30.40;41.20
34406;DHT22;20658;45.630;8.886;2022-07-29T09:04:09;30.70;41.30
34406;DHT22;20658;45.630;8.886;2022-07-29T09:06:46;30.70;40.30
34406;DHT22;20658;45.630;8.886;2022-07-29T09:09:21;30.40;41.20
34406;DHT22;20658;45.630;8.886;2022-07-29T09:11:54;30.60;41.10
34406;DHT22;20658;45.630;8.886;2022-07-29T09:14:29;31.10;40.60
34406;DHT22;20658;45.630;8.886;2022-07-29T09:17:03;31.50;40.20
34406;DHT22;20658;45.630;8.886;2022-07-29T09:19:37;31.80;39.70
34406;DHT22;20658;45.630;8.886;2022-07-29T09:22:10;32.20;39.00
34406;DHT22;20658;45.630;8.886;2022-07-29T09:24:45;32.20;38.00
34406;DHT22;20658;45.630;8.886;2022-07-29T09:27:21;32.40;37.70
34406;DHT22;20658;45.630;8.886;2022-07-29T09:30:00;32.40;36.80
34406;DHT22;20658;45.630;8.886;2022-07-29T09:32:54;32.20;37.50
34406;DHT22;20658;45.630;8.886;2022-07-29T09:35:30;31.80;37.70
34406;DHT22;20658;45.630;8.886;2022-07-29T09:38:13;31.70;38.40
34406;DHT22;20658;45.630;8.886;2022-07-29T09:40:56;31.70;38.60
34406;DHT22;20658;45.630;8.886;2022-07-29T09:43:30;31.80;38.30
34406;DHT22;20658;45.630;8.886;2022-07-29T09:46:11;31.80;38.20
34406;DHT22;20658;45.630;8.886;2022-07-29T09:48:45;31.50;38.70
34406;DHT22;20658;45.630;8.886;2022-07-29T09:51:19;31.40;39.40
34406;DHT22;20658;45.630;8.886;2022-07-29T09:53:53;31.30;39.30
34406;DHT22;20658;45.630;8.886;2022-07-29T09:56:38;31.30;39.70
34406;DHT22;20658;45.630;8.886;2022-07-29T09:59:12;31.40;39.50
34406;DHT22;20658;45.630;8.886;2022-07-29T10:01:48;31.40;38.80
34406;DHT22;20658;45.630;8.886;2022-07-29T10:04:22;31.40;39.30
34406;DHT22;20658;45.630;8.886;2022-07-29T10:06:56;31.30;39.30
34406;DHT22;20658;45.630;8.886;2022-07-29T10:09:31;31.60;39.10
34406;DHT22;20658;45.630;8.886;2022-07-29T10:12:07;32.00;38.70
34406;DHT22;20658;45.630;8.886;2022-07-29T10:14:42;32.10;38.90
34406;DHT22;20658;45.630;8.886;2022-07-29T10:17:18;32.10;38.40
34406;DHT22;20658;45.630;8.886;2022-07-29T10:19:49;32.10;38.60
34406;DHT22;20658;45.630;8.886;2022-07-29T10:22:23;32.30;38.80
34406;DHT22;20658;45.630;8.886;2022-07-29T10:24:56;32.40;37.90
34406;DHT22;20658;45.630;8.886;2022-07-29T10:27:30;32.50;38.40
34406;DHT22;20658;45.630;8.886;2022-07-29T10:30:04;32.60;37.70
34406;DHT22;20658;45.630;8.886;2022-07-29T10:36:04;32.80;37.60
34406;DHT22;20658;45.630;8.886;2022-07-29T10:38:50;32.80;38.00
34406;DHT22;20658;45.630;8.886;2022-07-29T10:41:39;32.80;37.50
34406;DHT22;20658;45.630;8.886;2022-07-29T10:44:21;32.70;37.40
34406;DHT22;20658;45.630;8.886;2022-07-29T10:46:56;32.70;37.60
34406;DHT22;20658;45.630;8.886;2022-07-29T10:49:31;32.70;37.90
34406;DHT22;20658;45.630;8.886;2022-07-29T10:52:05;32.80;37.70
34406;DHT22;20658;45.630;8.886;2022-07-29T10:54:48;32.90;37.30
34406;DHT22;20658;45.630;8.886;2022-07-29T10:57:26;33.20;37.20
34406;DHT22;20658;45.630;8.886;2022-07-29T11:00:26;33.30;37.10
34406;DHT22;20658;45.630;8.886;2022-07-29T11:03:03;33.40;37.20
34406;DHT22;20658;45.630;8.886;2022-07-29T11:05:57;33.50;36.90
34406;DHT22;20658;45.630;8.886;2022-07-29T11:08:30;33.70;36.30
34406;DHT22;20658;45.630;8.886;2022-07-29T11:11:31;33.80;36.00
34406;DHT22;20658;45.630;8.886;2022-07-29T11:14:05;33.60;36.50
34406;DHT22;20658;45.630;8.886;2022-07-29T11:17:03;33.90;35.90
34406;DHT22;20658;45.630;8.886;2022-07-29T11:19:38;33.90;36.00
34406;DHT22;20658;45.630;8.886;2022-07-29T11:22:32;33.90;36.10
34406;DHT22;20658;45.630;8.886;2022-07-29T11:25:16;33.80;36.10
34406;DHT22;20658;45.630;8.886;2022-07-29T11:27:52;34.00;36.70
34406;DHT22;20658;45.630;8.886;2022-07-29T11:30:47;34.40;35.70
34406;DHT22;20658;45.630;8.886;2022-07-29T11:33:29;34.50;35.60
34406;DHT22;20658;45.630;8.886;2022-07-29T11:36:09;34.20;35.40
34406;DHT22;20658;45.630;8.886;2022-07-29T11:38:45;33.90;35.30
34406;DHT22;20658;45.630;8.886;2022-07-29T11:41:22;34.40;35.20
34406;DHT22;20658;45.630;8.886;2022-07-29T11:43:57;34.30;35.70
34406;DHT22;20658;45.630;8.886;2022-07-29T11:46:48;34.20;35.80
34406;DHT22;20658;45.630;8.886;2022-07-29T11:49:25;34.30;35.70
34406;DHT22;20658;45.630;8.886;2022-07-29T11:52:00;34.30;36.10
34406;DHT22;20658;45.630;8.886;2022-07-29T11:54:37;34.30;35.80
34406;DHT22;20658;45.630;8.886;2022-07-29T11:57:12;33.70;35.80
34406;DHT22;20658;45.630;8.886;2022-07-29T11:59:47;33.50;36.60
34406;DHT22;20658;45.630;8.886;2022-07-29T12:02:20;33.40;36.70
34406;DHT22;20658;45.630;8.886;2022-07-29T12:04:56;33.70;36.90
34406;DHT22;20658;45.630;8.886;2022-07-29T12:07:32;34.00;36.20
34406;DHT22;20658;45.630;8.886;2022-07-29T12:10:08;34.00;36.50
34406;DHT22;20658;45.630;8.886;2022-07-29T12:12:41;33.80;36.20
34406;DHT22;20658;45.630;8.886;2022-07-29T12:15:16;33.40;37.10
34406;DHT22;20658;45.630;8.886;2022-07-29T12:17:52;33.50;37.00
34406;DHT22;20658;45.630;8.886;2022-07-29T12:20:27;33.50;36.60
34406;DHT22;20658;45.630;8.886;2022-07-29T12:23:05;33.60;36.80
34406;DHT22;20658;45.630;8.886;2022-07-29T12:25:43;33.60;37.10
34406;DHT22;20658;45.630;8.886;2022-07-29T12:28:17;33.60;37.10
34406;DHT22;20658;45.630;8.886;2022-07-29T12:30:53;33.60;37.10
34406;DHT22;20658;45.630;8.886;2022-07-29T12:33:28;33.40;37.40
34406;DHT22;20658;45.630;8.886;2022-07-29T12:36:02;33.30;37.70
34406;DHT22;20658;45.630;8.886;2022-07-29T12:38:36;32.90;37.60
34406;DHT22;20658;45.630;8.886;2022-07-29T12:41:12;33.10;38.30
34406;DHT22;20658;45.630;8.886;2022-07-29T12:43:53;33.20;38.10
34406;DHT22;20658;45.630;8.886;2022-07-29T12:46:27;33.50;37.40
34406;DHT22;20658;45.630;8.886;2022-07-29T12:49:01;33.70;36.90
34406;DHT22;20658;45.630;8.886;2022-07-29T12:51:36;34.10;37.00
34406;DHT22;20658;45.630;8.886;2022-07-29T12:54:12;34.30;36.50
34406;DHT22;20658;45.630;8.886;2022-07-29T12:56:58;34.80;35.40
34406;DHT22;20658;45.630;8.886;2022-07-29T12:59:32;35.50;35.30
34406;DHT22;20658;45.630;8.886;2022-07-29T13:02:06;35.40;34.90
34406;DHT22;20658;45.630;8.886;2022-07-29T13:04:39;35.60;34.60
34406;DHT22;20658;45.630;8.886;2022-07-29T13:07:13;35.20;35.10
34406;DHT22;20658;45.630;8.886;2022-07-29T13:09:46;35.00;35.40
34406;DHT22;20658;45.630;8.886;2022-07-29T13:12:21;34.80;35.20
34406;DHT22;20658;45.630;8.886;2022-07-29T13:14:55;34.80;34.80
34406;DHT22;20658;45.630;8.886;2022-07-29T13:17:28;34.60;34.80
34406;DHT22;20658;45.630;8.886;2022-07-29T13:20:14;34.20;36.20
34406;DHT22;20658;45.630;8.886;2022-07-29T13:22:48;34.10;36.20
34406;DHT22;20658;45.630;8.886;2022-07-29T13:25:26;33.80;36.40
34406;DHT22;20658;45.630;8.886;2022-07-29T13:28:01;33.90;36.30
34406;DHT22;20658;45.630;8.886;2022-07-29T13:30:35;34.00;37.00
34406;DHT22;20658;45.630;8.886;2022-07-29T13:33:09;34.20;36.60
34406;DHT22;20658;45.630;8.886;2022-07-29T13:35:42;34.60;36.40
34406;DHT22;20658;45.630;8.886;2022-07-29T13:38:16;35.50;35.40
34406;DHT22;20658;45.630;8.886;2022-07-29T13:40:49;35.70;34.20
34406;DHT22;20658;45.630;8.886;2022-07-29T13:43:24;35.60;34.90
34406;DHT22;20658;45.630;8.886;2022-07-29T13:45:57;35.50;34.90
34406;DHT22;20658;45.630;8.886;2022-07-29T13:48:31;35.70;34.80
34406;DHT22;20658;45.630;8.886;2022-07-29T13:51:04;35.40;35.00
34406;DHT22;20658;45.630;8.886;2022-07-29T13:53:33;35.30;34.60
34406;DHT22;20658;45.630;8.886;2022-07-29T13:56:06;34.30;35.90
34406;DHT22;20658;45.630;8.886;2022-07-29T13:58:41;33.80;36.50
34406;DHT22;20658;45.630;8.886;2022-07-29T14:01:15;33.70;36.80
34406;DHT22;20658;45.630;8.886;2022-07-29T14:03:48;33.60;36.50
34406;DHT22;20658;45.630;8.886;2022-07-29T14:06:22;33.30;37.20
34406;DHT22;20658;45.630;8.886;2022-07-29T14:08:55;33.00;38.10
34406;DHT22;20658;45.630;8.886;2022-07-29T14:11:29;32.70;38.30
34406;DHT22;20658;45.630;8.886;2022-07-29T14:14:04;32.10;39.50
34406;DHT22;20658;45.630;8.886;2022-07-29T14:16:37;30.80;41.10
34406;DHT22;20658;45.630;8.886;2022-07-29T14:19:11;29.80;43.00
34406;DHT22;20658;45.630;8.886;2022-07-29T14:21:44;29.50;43.50
34406;DHT22;20658;45.630;8.886;2022-07-29T14:24:18;29.20;44.90
34406;DHT22;20658;45.630;8.886;2022-07-29T14:26:51;29.00;45.60
34406;DHT22;20658;45.630;8.886;2022-07-29T14:29:26;28.70;46.10
34406;DHT22;20658;45.630;8.886;2022-07-29T14:32:00;28.20;47.80
34406;DHT22;20658;45.630;8.886;2022-07-29T14:34:34;28.20;48.10
34406;DHT22;20658;45.630;8.886;2022-07-29T14:37:08;28.10;48.40
34406;DHT22;20658;45.630;8.886;2022-07-29T14:39:42;27.70;48.50
34406;DHT22;20658;45.630;8.886;2022-07-29T14:42:15;27.70;49.00
34406;DHT22;20658;45.630;8.886;2022-07-29T14:44:50;27.60;48.80
34406;DHT22;20658;45.630;8.886;2022-07-29T14:47:23;27.40;49.60
34406;DHT22;20658;45.630;8.886;2022-07-29T14:49:57;27.10;50.50
34406;DHT22;20658;45.630;8.886;2022-07-29T14:52:30;26.80;51.00
34406;DHT22;20658;45.630;8.886;2022-07-29T14:55:04;26.90;51.10
34406;DHT22;20658;45.630;8.886;2022-07-29T14:57:38;26.70;51.60
34406;DHT22;20658;45.630;8.886;2022-07-29T15:00:14;26.70;52.10
34406;DHT22;20658;45.630;8.886;2022-07-29T15:02:47;26.70;52.30
34406;DHT22;20658;45.630;8.886;2022-07-29T15:05:21;26.80;52.30
34406;DHT22;20658;45.630;8.886;2022-07-29T15:07:54;26.80;52.40
34406;DHT22;20658;45.630;8.886;2022-07-29T15:10:28;26.90;52.40
34406;DHT22;20658;45.630;8.886;2022-07-29T15:13:02;26.90;52.70
34406;DHT22;20658;45.630;8.886;2022-07-29T15:15:37;27.00;53.30
34406;DHT22;20658;45.630;8.886;2022-07-29T15:18:10;27.00;53.60
34406;DHT22;20658;45.630;8.886;2022-07-29T15:20:44;26.90;53.70
34406;DHT22;20658;45.630;8.886;2022-07-29T15:23:18;26.90;54.50
34406;DHT22;20658;45.630;8.886;2022-07-29T15:25:51;26.90;54.80
34406;DHT22;20658;45.630;8.886;2022-07-29T15:28:25;26.60;55.50
34406;DHT22;20658;45.630;8.886;2022-07-29T15:31:00;26.70;55.50
34406;DHT22;20658;45.630;8.886;2022-07-29T15:33:33;26.50;55.80
34406;DHT22;20658;45.630;8.886;2022-07-29T15:36:02;26.40;56.30
34406;DHT22;20658;45.630;8.886;2022-07-29T15:38:37;26.20;57.20
34406;DHT22;20658;45.630;8.886;2022-07-29T15:41:13;26.10;57.70
34406;DHT22;20658;45.630;8.886;2022-07-29T15:43:47;25.90;58.10
34406;DHT22;20658;45.630;8.886;2022-07-29T15:46:22;25.60;59.40
34406;DHT22;20658;45.630;8.886;2022-07-29T15:49:13;25.40;60.20
34406;DHT22;20658;45.630;8.886;2022-07-29T15:51:47;25.10;60.10
34406;DHT22;20658;45.630;8.886;2022-07-29T15:54:20;25.00;60.40
34406;DHT22;20658;45.630;8.886;2022-07-29T15:56:54;25.00;60.80
34406;DHT22;20658;45.630;8.886;2022-07-29T15:59:28;25.00;60.50
34406;DHT22;20658;45.630;8.886;2022-07-29T16:02:03;24.90;60.50
34406;DHT22;20658;45.630;8.886;2022-07-29T16:04:37;24.90;61.80
34406;DHT22;20658;45.630;8.886;2022-07-29T16:07:11;24.80;62.90
34406;DHT22;20658;45.630;8.886;2022-07-29T16:09:44;24.70;62.90
34406;DHT22;20658;45.630;8.886;2022-07-29T16:12:18;24.60;63.40
34406;DHT22;20658;45.630;8.886;2022-07-29T16:14:51;24.60;63.90
34406;DHT22;20658;45.630;8.886;2022-07-29T16:17:26;24.30;65.90
34406;DHT22;20658;45.630;8.886;2022-07-29T16:20:00;24.20;68.90
34406;DHT22;20658;45.630;8.886;2022-07-29T16:22:33;23.90;71.20
34406;DHT22;20658;45.630;8.886;2022-07-29T16:25:08;23.60;72.90